createdAt,value
2022-12-12T00:01:28.209Z,155473.97
2022-12-12T00:03:56.510Z,155475.28
2022-12-12T00:06:25.288Z,155466.06
2022-12-12T00:08:53.733Z,155471.34
2022-12-12T00:11:26.237Z,155476.59
2022-12-12T00:13:55.021Z,155458.16
2022-12-12T00:16:24.354Z,155459.47
2022-12-12T00:18:53.129Z,155448.88
2022-12-12T00:21:23.776Z,155454.16
2022-12-12T00:23:53.475Z,155452.84
2022-12-12T00:26:24.947Z,155455.47
2022-12-12T00:28:53.582Z,155451.56
2022-12-12T00:31:21.722Z,155454.16
2022-12-12T00:33:51.270Z,155458.16
2022-12-12T00:36:22.562Z,155442.28
2022-12-12T00:38:52.487Z,155455.47
2022-12-12T00:41:21.235Z,155463.38
2022-12-12T00:43:49.676Z,155475.28
2022-12-12T00:46:21.158Z,155477.91
2022-12-12T00:48:50.849Z,155485.88
2022-12-12T00:51:20.610Z,155476.59
2022-12-12T00:53:51.017Z,155483.19
2022-12-12T00:56:20.809Z,155477.91
2022-12-12T00:58:50.175Z,155475.28
2022-12-12T01:01:26.997Z,155471.34
2022-12-12T01:03:55.530Z,155480.56
2022-12-12T01:06:24.134Z,155470.00
2022-12-12T01:08:53.070Z,155468.69
2022-12-12T01:11:22.004Z,155473.97
2022-12-12T01:13:52.323Z,155463.38
2022-12-12T01:16:20.867Z,155460.78
2022-12-12T01:18:49.363Z,155467.38
2022-12-12T01:21:19.393Z,155466.06
2022-12-12T01:23:48.487Z,155472.66
2022-12-12T01:26:23.964Z,155481.88
2022-12-12T01:28:53.282Z,155473.97
2022-12-12T01:31:21.595Z,155463.38
2022-12-12T01:33:50.810Z,155470.00
2022-12-12T01:36:21.691Z,155473.97
2022-12-12T01:38:51.316Z,155473.97
2022-12-12T01:41:20.518Z,155487.16
2022-12-12T01:43:49.485Z,155475.28
2022-12-12T01:46:23.216Z,155488.47
2022-12-12T01:49:21.209Z,155495.09
2022-12-12T01:51:51.043Z,155476.59
2022-12-12T01:54:33.489Z,155489.78
2022-12-12T01:57:04.207Z,155489.78
2022-12-12T01:59:34.139Z,155477.91
2022-12-12T02:02:02.319Z,155499.00
2022-12-12T02:04:31.068Z,155495.09
2022-12-12T02:06:59.707Z,155508.28
2022-12-12T02:09:28.505Z,155504.31
2022-12-12T02:11:57.321Z,155518.81
2022-12-12T02:14:29.968Z,155525.41
2022-12-12T02:17:06.373Z,155530.72
2022-12-12T02:19:43.953Z,155526.72
2022-12-12T02:22:29.189Z,155536.00
2022-12-12T02:25:19.312Z,155526.72
2022-12-12T02:28:03.070Z,155526.72
2022-12-12T02:30:46.237Z,155512.22
2022-12-12T02:33:21.001Z,155533.34
2022-12-12T02:36:20.248Z,155530.72
2022-12-12T02:38:53.531Z,155539.94
2022-12-12T02:41:45.201Z,155532.03
2022-12-12T02:44:40.853Z,155542.59
2022-12-12T02:47:27.746Z,155545.22
2022-12-12T02:50:08.147Z,155553.13
2022-12-12T02:52:37.186Z,155553.13
2022-12-12T02:55:06.360Z,155569.00
2022-12-12T02:57:34.473Z,155571.63
2022-12-12T03:00:15.363Z,155566.34
2022-12-12T03:03:40.071Z,155570.31
2022-12-12T03:07:00.039Z,155583.53
2022-12-12T03:09:53.687Z,155584.84
2022-12-12T03:12:27.640Z,155576.94
2022-12-12T03:15:03.465Z,155580.84
2022-12-12T03:17:46.572Z,155586.16
2022-12-12T03:20:33.225Z,155592.75
2022-12-12T03:23:07.119Z,155570.31
2022-12-12T03:25:49.551Z,155582.16
2022-12-12T03:28:38.681Z,155584.84
2022-12-12T03:31:10.339Z,155591.44
2022-12-12T03:33:52.678Z,155599.34
2022-12-12T03:36:27.965Z,155598.03
2022-12-12T03:39:00.779Z,155600.66
2022-12-12T03:41:34.536Z,155605.97
2022-12-12T03:44:12.799Z,155595.38
2022-12-12T03:47:00.100Z,155613.88
2022-12-12T03:49:33.735Z,155621.78
2022-12-12T03:52:07.684Z,155608.56
2022-12-12T03:54:43.812Z,155611.25
2022-12-12T03:57:21.106Z,155598.03
2022-12-12T03:59:54.572Z,155609.91
2022-12-12T04:02:31.111Z,155620.47
2022-12-12T04:05:12.251Z,155629.69
2022-12-12T04:07:47.254Z,155616.50
2022-12-12T04:10:33.718Z,155633.69
2022-12-12T04:13:41.535Z,155635.00
2022-12-12T04:16:15.038Z,155644.22
2022-12-12T04:19:03.526Z,155658.75
2022-12-12T04:22:22.245Z,155615.19
2022-12-12T04:25:02.888Z,155644.22
2022-12-12T04:27:39.255Z,155653.50
2022-12-12T04:30:12.884Z,155652.13
2022-12-12T04:33:10.119Z,155660.09
2022-12-12T04:35:46.431Z,155653.50
2022-12-12T04:38:18.672Z,155658.75
2022-12-12T04:40:50.767Z,155677.25
2022-12-12T04:43:20.705Z,155679.88
2022-12-12T04:45:59.522Z,155686.47
2022-12-12T04:48:38.328Z,155695.75
2022-12-12T04:51:09.240Z,155704.97
2022-12-12T04:53:41.063Z,155723.47
2022-12-12T04:56:11.798Z,155723.47
2022-12-12T04:58:40.394Z,155735.34
2022-12-12T05:01:08.723Z,155741.94
2022-12-12T05:04:04.072Z,155753.84
2022-12-12T05:06:39.611Z,155769.69
2022-12-12T05:09:08.300Z,155759.13
2022-12-12T05:11:36.423Z,155780.25
2022-12-12T05:14:04.384Z,155788.19
2022-12-12T05:16:54.028Z,155789.50
2022-12-12T05:19:21.949Z,155788.19
2022-12-12T05:21:50.924Z,155794.78
2022-12-12T05:24:18.885Z,155806.69
2022-12-12T05:26:47.329Z,155814.63
2022-12-12T05:29:15.234Z,155810.63
2022-12-12T05:35:12.262Z,155823.84
2022-12-12T05:37:41.099Z,155831.75
2022-12-12T05:40:09.833Z,155843.66
2022-12-12T05:42:38.353Z,155842.34
2022-12-12T05:45:08.092Z,155856.88
2022-12-12T05:47:36.322Z,155854.22
2022-12-12T05:50:05.496Z,155867.44
2022-12-12T05:52:34.010Z,155856.88
2022-12-12T05:55:01.679Z,155864.81
2022-12-12T05:57:29.640Z,155883.31
2022-12-12T05:59:57.861Z,155893.88
2022-12-12T06:02:26.626Z,155893.88
2022-12-12T06:04:54.723Z,155896.53
2022-12-12T06:07:23.043Z,155893.88
2022-12-12T06:09:51.045Z,155907.09
2022-12-12T06:12:19.425Z,155917.69
2022-12-12T06:14:47.390Z,155930.84
2022-12-12T06:17:15.556Z,155938.81
2022-12-12T06:19:44.131Z,155928.22
2022-12-12T06:22:12.744Z,155936.16
2022-12-12T06:24:41.029Z,155933.53
2022-12-12T06:27:09.567Z,155933.53
2022-12-12T06:29:37.399Z,155950.69
2022-12-12T06:32:05.949Z,155953.34
2022-12-12T06:34:33.661Z,155955.97
2022-12-12T06:37:02.188Z,155981.13
2022-12-12T06:39:30.644Z,155985.06
2022-12-12T06:41:58.761Z,155994.34
2022-12-12T06:44:27.109Z,156011.50
2022-12-12T06:46:55.333Z,156018.09
2022-12-12T06:49:23.405Z,156032.66
2022-12-12T06:51:51.683Z,156026.03
2022-12-12T06:54:19.885Z,156036.63
2022-12-12T06:56:48.892Z,156047.19
2022-12-12T06:59:17.264Z,156022.09
2022-12-12T07:01:45.680Z,156049.81
2022-12-12T07:04:15.237Z,156057.78
2022-12-12T07:06:43.790Z,156057.78
2022-12-12T07:09:12.490Z,156069.66
2022-12-12T07:11:42.190Z,156056.41
2022-12-12T07:14:11.027Z,156080.25
2022-12-12T07:16:39.500Z,156085.53
2022-12-12T07:19:07.742Z,156081.56
2022-12-12T07:21:36.652Z,156089.50
2022-12-12T07:24:04.566Z,156090.78
2022-12-12T07:26:32.882Z,156097.41
2022-12-12T07:29:03.963Z,156098.78
2022-12-12T07:31:32.472Z,156105.34
2022-12-12T07:34:00.721Z,156108.03
2022-12-12T07:36:29.001Z,156110.63
2022-12-12T07:38:56.768Z,156130.47
2022-12-12T07:41:25.229Z,156127.84
2022-12-12T07:43:53.560Z,156155.63
2022-12-12T07:46:24.346Z,156156.94
2022-12-12T07:48:53.954Z,156160.88
2022-12-12T07:51:23.957Z,156170.16
2022-12-12T07:53:52.109Z,156171.47
2022-12-12T07:56:20.872Z,156168.84
2022-12-12T07:58:49.269Z,156175.44
2022-12-12T08:01:26.269Z,156201.88
2022-12-12T08:03:54.895Z,156219.09
2022-12-12T08:06:24.238Z,156219.09
2022-12-12T08:08:53.402Z,156228.34
2022-12-12T08:11:24.608Z,156237.59
2022-12-12T08:13:54.148Z,156250.81
2022-12-12T08:16:26.564Z,156258.75
2022-12-12T08:18:56.109Z,156270.69
2022-12-12T08:21:26.352Z,156281.28
2022-12-12T08:23:59.647Z,156278.59
2022-12-12T08:26:29.199Z,156285.22
2022-12-12T08:28:58.316Z,156282.59
2022-12-12T08:31:27.343Z,156289.22
2022-12-12T08:33:55.461Z,156298.47
2022-12-12T08:36:27.695Z,156326.25
2022-12-12T08:38:56.128Z,156315.69
2022-12-12T08:41:25.818Z,156331.56
2022-12-12T08:43:54.599Z,156331.56
2022-12-12T08:46:23.984Z,156346.09
2022-12-12T08:48:52.450Z,156332.88
2022-12-12T08:51:21.293Z,156332.88
2022-12-12T08:53:51.239Z,156361.97
2022-12-12T08:56:21.952Z,156377.84
2022-12-12T08:58:50.207Z,156388.44
2022-12-12T09:01:23.706Z,156391.06
2022-12-12T09:03:52.199Z,156401.69
2022-12-12T09:06:20.395Z,156387.13
2022-12-12T09:08:49.089Z,156380.50
2022-12-12T09:11:18.252Z,156377.84
2022-12-12T09:13:46.401Z,156377.84
2022-12-12T09:16:14.978Z,156393.75
2022-12-12T09:18:48.672Z,156401.69
2022-12-12T09:21:18.532Z,156403.00
2022-12-12T09:23:48.796Z,156414.91
2022-12-12T09:26:18.752Z,156426.81
2022-12-12T09:28:47.018Z,156424.16
2022-12-12T09:31:15.674Z,156424.16
2022-12-12T09:33:44.095Z,156433.41
2022-12-12T09:36:13.987Z,156470.53
2022-12-12T09:38:42.540Z,156474.47
2022-12-12T09:41:12.032Z,156478.44
2022-12-12T09:44:04.593Z,156489.03
2022-12-12T09:46:38.390Z,156502.25
2022-12-12T09:49:20.603Z,156511.56
2022-12-12T09:51:50.828Z,156535.38
2022-12-12T09:54:23.694Z,156559.19
2022-12-12T09:57:06.873Z,156561.88
2022-12-12T09:59:39.831Z,156567.16
2022-12-12T10:02:13.994Z,156571.13
2022-12-12T10:05:06.295Z,156561.88
2022-12-12T10:07:53.404Z,156561.88
2022-12-12T10:10:25.153Z,156553.94
2022-12-12T10:12:55.231Z,156565.81
2022-12-12T10:15:25.978Z,156580.38
2022-12-12T10:17:56.722Z,156576.44
2022-12-12T10:20:28.370Z,156563.19
2022-12-12T10:23:24.520Z,156555.25
2022-12-12T10:26:02.493Z,156546.00
2022-12-12T10:28:32.354Z,156573.78
2022-12-12T10:31:38.020Z,156583.06
2022-12-12T10:34:43.801Z,156589.69
2022-12-12T10:37:52.939Z,156605.56
2022-12-12T10:40:45.212Z,156605.56
2022-12-12T10:43:23.391Z,156591.00
2022-12-12T10:46:26.618Z,156585.69
2022-12-12T10:48:54.809Z,156584.38
2022-12-12T10:51:24.862Z,156579.06
2022-12-12T10:53:53.149Z,156563.19
2022-12-12T10:56:27.723Z,156580.38
2022-12-12T10:59:01.530Z,156598.94
2022-12-12T11:04:26.057Z,156614.81
2022-12-12T11:06:56.309Z,156612.16
2022-12-12T11:09:26.397Z,156608.19
2022-12-12T11:12:02.059Z,156608.19
2022-12-12T11:14:35.331Z,156601.59
2022-12-12T11:17:23.581Z,156598.94
2022-12-12T11:19:53.214Z,156600.25
2022-12-12T11:22:21.884Z,156587.00
2022-12-12T11:24:50.422Z,156568.47
2022-12-12T11:27:28.927Z,156547.31
2022-12-12T11:30:00.022Z,156573.78
2022-12-12T11:32:33.116Z,156572.44
2022-12-12T11:35:01.664Z,156551.25
2022-12-12T11:37:38.872Z,156555.25
2022-12-12T11:40:07.582Z,156557.88
2022-12-12T11:42:36.246Z,156559.19
2022-12-12T11:45:24.472Z,156561.88
2022-12-12T11:47:53.232Z,156584.38
2022-12-12T11:50:29.512Z,156560.56
2022-12-12T11:53:02.110Z,156564.50
2022-12-12T11:55:45.749Z,156557.88
2022-12-12T11:58:18.129Z,156555.25
2022-12-12T12:00:58.063Z,156585.69
2022-12-12T12:03:53.124Z,156580.38
2022-12-12T12:07:15.496Z,156597.63
2022-12-12T12:10:04.060Z,156617.47
2022-12-12T12:12:54.102Z,156605.56
2022-12-12T12:15:31.568Z,156610.84
2022-12-12T12:18:09.603Z,156606.88
2022-12-12T12:21:07.150Z,156588.34
2022-12-12T12:23:45.149Z,156576.44
2022-12-12T12:26:50.028Z,156576.44
2022-12-12T12:29:30.062Z,156593.63
2022-12-12T12:32:10.554Z,156577.75
2022-12-12T12:35:05.381Z,156565.81
2022-12-12T12:38:02.945Z,156564.50
2022-12-12T12:41:01.680Z,156559.19
2022-12-12T12:43:48.268Z,156567.16
2022-12-12T12:46:28.572Z,156565.81
2022-12-12T12:49:02.027Z,156536.69
2022-12-12T12:51:35.697Z,156552.56
2022-12-12T12:54:08.278Z,156542.00
2022-12-12T12:56:44.761Z,156553.94
2022-12-12T12:59:18.069Z,156543.31
2022-12-12T13:01:49.012Z,156534.06
2022-12-12T13:04:22.049Z,156518.19
2022-12-12T13:07:01.286Z,156524.81
2022-12-12T13:09:38.480Z,156514.19
2022-12-12T13:12:19.343Z,156510.19
2022-12-12T13:15:25.413Z,156500.94
2022-12-12T13:18:02.182Z,156502.25
2022-12-12T13:20:38.582Z,156514.19
2022-12-12T13:23:18.688Z,156510.19
2022-12-12T13:26:08.268Z,156514.19
2022-12-12T13:28:41.457Z,156512.88
2022-12-12T13:31:26.366Z,156507.56
2022-12-12T13:34:01.357Z,156507.56
2022-12-12T13:36:34.525Z,156524.81
2022-12-12T13:39:05.385Z,156519.50
2022-12-12T13:41:56.628Z,156512.88
2022-12-12T13:44:45.325Z,156510.19
2022-12-12T13:47:25.648Z,156498.31
2022-12-12T13:50:01.327Z,156495.63
2022-12-12T13:52:41.777Z,156499.63
2022-12-12T13:55:19.086Z,156491.69
2022-12-12T13:58:01.543Z,156489.03
2022-12-12T14:00:31.158Z,156485.06
2022-12-12T14:03:11.707Z,156485.06
2022-12-12T14:06:08.672Z,156479.75
2022-12-12T14:08:39.169Z,156473.16
2022-12-12T14:11:10.483Z,156481.09
2022-12-12T14:13:46.258Z,156475.81
2022-12-12T14:16:13.870Z,156497.00
2022-12-12T14:18:58.562Z,156471.84
2022-12-12T14:21:46.846Z,156470.53
2022-12-12T14:24:34.078Z,156471.84
2022-12-12T14:27:06.512Z,156475.81
2022-12-12T14:29:45.110Z,156481.09
2022-12-12T14:32:13.078Z,156467.84
2022-12-12T14:35:10.017Z,156471.84
2022-12-12T14:37:57.029Z,156485.06
2022-12-12T14:40:31.517Z,156467.84
2022-12-12T14:43:21.349Z,156478.44
2022-12-12T14:45:51.108Z,156470.53
2022-12-12T14:48:28.301Z,156489.03
2022-12-12T14:51:02.842Z,156504.94
2022-12-12T14:53:56.306Z,156506.25
2022-12-12T14:56:52.460Z,156514.19
2022-12-12T14:59:26.350Z,156520.81
2022-12-12T15:02:00.237Z,156511.56
2022-12-12T15:04:36.580Z,156520.81
2022-12-12T15:07:06.671Z,156519.50
2022-12-12T15:09:36.776Z,156528.75
2022-12-12T15:12:11.492Z,156535.38
2022-12-12T15:14:46.811Z,156522.13
2022-12-12T15:17:21.871Z,156463.91
2022-12-12T15:20:09.840Z,156539.38
2022-12-12T15:22:44.348Z,156535.38
2022-12-12T15:25:20.918Z,156532.75
2022-12-12T15:27:56.097Z,156534.06
2022-12-12T15:30:39.755Z,156540.69
2022-12-12T15:33:22.319Z,156547.31
2022-12-12T15:36:03.206Z,156542.00
2022-12-12T15:38:32.754Z,156539.38
2022-12-12T15:41:06.625Z,156512.88
2022-12-12T15:43:37.292Z,156531.38
2022-12-12T15:46:14.840Z,156524.81
2022-12-12T15:48:45.306Z,156528.75
2022-12-12T15:51:17.241Z,156526.13
2022-12-12T15:53:50.568Z,156520.81
2022-12-12T15:56:21.129Z,156511.56
2022-12-12T15:58:56.396Z,156507.56
2022-12-12T16:01:29.332Z,156512.88
2022-12-12T16:04:02.629Z,156519.50
2022-12-12T16:06:45.862Z,156524.81
2022-12-12T16:09:19.342Z,156504.94
2022-12-12T16:11:54.289Z,156491.69
2022-12-12T16:14:39.517Z,156477.13
2022-12-12T16:17:17.821Z,156493.00
2022-12-12T16:20:05.983Z,156503.56
2022-12-12T16:22:46.462Z,156511.56
2022-12-12T16:25:22.601Z,156518.19
2022-12-12T16:27:55.685Z,156508.88
2022-12-12T16:30:24.543Z,156516.81
2022-12-12T16:32:52.787Z,156518.19
2022-12-12T16:35:23.755Z,156523.44
2022-12-12T16:37:53.943Z,156514.19
2022-12-12T16:40:22.207Z,156532.75
2022-12-12T16:42:56.479Z,156500.94
2022-12-12T16:45:24.922Z,156498.31
2022-12-12T16:47:52.530Z,156504.94
2022-12-12T16:50:21.017Z,156483.75
2022-12-12T16:52:48.888Z,156495.63
2022-12-12T16:55:21.168Z,156486.38
2022-12-12T16:57:49.009Z,156483.75
2022-12-12T17:00:17.939Z,156490.38
2022-12-12T17:02:46.092Z,156457.28
2022-12-12T17:05:19.023Z,156473.16
2022-12-12T17:07:47.280Z,156453.28
2022-12-12T17:10:16.220Z,156451.97
2022-12-12T17:12:44.721Z,156445.34
2022-12-12T17:15:31.531Z,156450.66
2022-12-12T17:18:00.108Z,156448.03
2022-12-12T17:20:37.589Z,156469.19
2022-12-12T17:23:28.069Z,156444.03
2022-12-12T17:26:03.024Z,156449.34
2022-12-12T17:28:33.489Z,156448.03
2022-12-12T17:31:02.822Z,156437.41
2022-12-12T17:33:31.429Z,156436.09
2022-12-12T17:36:02.400Z,156434.78
2022-12-12T17:38:30.951Z,156422.84
2022-12-12T17:41:03.452Z,156445.34
2022-12-12T17:43:31.469Z,156424.16
2022-12-12T17:46:01.454Z,156429.47
2022-12-12T17:48:33.177Z,156420.22
2022-12-12T17:51:06.538Z,156416.25
2022-12-12T17:53:39.128Z,156424.16
2022-12-12T17:56:21.138Z,156424.16
2022-12-12T17:58:50.286Z,156430.78
2022-12-12T18:01:21.937Z,156428.16
2022-12-12T18:03:50.527Z,156414.91
2022-12-12T18:06:20.313Z,156422.84
2022-12-12T18:08:48.796Z,156416.25
2022-12-12T18:11:19.536Z,156416.25
2022-12-12T18:13:48.773Z,156424.16
2022-12-12T18:16:18.481Z,156421.53
2022-12-12T18:18:46.913Z,156418.88
2022-12-12T18:24:06.853Z,156424.16
2022-12-12T18:26:35.360Z,156417.56
2022-12-12T18:29:05.672Z,156407.00
2022-12-12T18:31:34.946Z,156405.63
2022-12-12T18:34:03.495Z,156391.06
2022-12-12T18:36:33.015Z,156392.44
2022-12-12T18:39:02.907Z,156371.25
2022-12-12T18:41:33.166Z,156367.28
2022-12-12T18:44:06.446Z,156342.13
2022-12-12T18:46:42.263Z,156330.25
2022-12-12T18:49:16.197Z,156322.31
2022-12-12T18:51:47.740Z,156309.06
2022-12-12T18:54:17.240Z,156306.41
2022-12-12T18:56:47.265Z,156295.84
2022-12-12T18:59:16.612Z,156282.59
2022-12-12T19:01:44.994Z,156273.34
2022-12-12T19:04:20.966Z,156269.38
2022-12-12T19:06:53.542Z,156248.19
2022-12-12T19:09:21.991Z,156227.03
2022-12-12T19:11:51.749Z,156216.44
2022-12-12T19:14:22.126Z,156208.50
2022-12-12T19:16:50.461Z,156200.56
2022-12-12T19:19:18.778Z,156188.66
2022-12-12T19:21:47.047Z,156184.72
2022-12-12T19:24:15.010Z,156164.88
2022-12-12T19:26:45.053Z,156172.78
2022-12-12T19:29:21.567Z,156193.97
2022-12-12T19:31:55.377Z,156179.41
2022-12-12T19:34:27.483Z,156175.44
2022-12-12T19:36:56.152Z,156162.25
2022-12-12T19:39:24.277Z,156172.78
2022-12-12T19:41:52.732Z,156163.56
2022-12-12T19:44:22.124Z,156162.25
2022-12-12T19:46:50.627Z,156158.25
2022-12-12T19:49:19.042Z,156151.63
2022-12-12T19:51:47.805Z,156137.09
2022-12-12T19:54:18.517Z,156138.41
2022-12-12T19:56:47.448Z,156129.16
2022-12-12T19:59:17.554Z,156098.78
2022-12-12T20:01:46.583Z,156105.34
2022-12-12T20:04:20.721Z,156090.78
2022-12-12T20:06:50.613Z,156086.88
2022-12-12T20:09:25.173Z,156078.94
2022-12-12T20:11:54.562Z,156071.00
2022-12-12T20:14:25.483Z,156088.19
2022-12-12T20:16:54.683Z,156080.25
2022-12-12T20:19:27.461Z,156088.19
2022-12-12T20:22:01.636Z,156077.56
2022-12-12T20:24:32.579Z,156064.41
2022-12-12T20:27:03.877Z,156041.88
2022-12-12T20:29:32.458Z,156049.81
2022-12-12T20:32:02.556Z,156048.50
2022-12-12T20:34:31.123Z,156018.09
2022-12-12T20:37:00.203Z,156039.25
2022-12-12T20:39:28.637Z,156040.56
2022-12-12T20:41:57.924Z,156031.34
2022-12-12T20:44:26.231Z,156015.47
2022-12-12T20:46:54.588Z,156011.50
2022-12-12T20:49:25.245Z,156012.81
2022-12-12T20:51:55.756Z,155995.66
2022-12-12T20:54:25.815Z,156002.25
2022-12-12T20:56:56.264Z,156010.19
2022-12-12T20:59:25.056Z,156002.25
2022-12-12T21:01:54.190Z,156010.19
2022-12-12T21:04:22.775Z,156006.19
2022-12-12T21:06:52.351Z,156008.88
2022-12-12T21:09:25.769Z,156000.91
2022-12-12T21:11:57.440Z,155983.75
2022-12-12T21:14:27.602Z,155965.22
2022-12-12T21:16:55.940Z,155973.19
2022-12-12T21:19:24.452Z,155983.75
2022-12-12T21:21:53.751Z,155981.13
2022-12-12T21:24:22.411Z,155989.03
2022-12-12T21:26:51.069Z,155977.13
2022-12-12T21:29:19.584Z,155985.06
2022-12-12T21:31:52.131Z,155967.91
2022-12-12T21:34:23.101Z,155966.56
2022-12-12T21:36:53.300Z,155977.13
2022-12-12T21:39:23.211Z,155965.22
2022-12-12T21:41:51.818Z,155944.06
2022-12-12T21:44:20.720Z,155953.34
2022-12-12T21:46:48.946Z,155942.75
2022-12-12T21:49:28.995Z,155952.00
2022-12-12T21:52:02.174Z,155967.91
2022-12-12T21:54:30.099Z,155983.75
2022-12-12T21:57:02.292Z,155981.13
2022-12-12T21:59:30.851Z,155999.59
2022-12-12T22:02:00.787Z,156019.41
2022-12-12T22:04:28.988Z,156039.25
2022-12-12T22:07:00.315Z,156061.72
2022-12-12T22:09:27.754Z,156073.63
2022-12-12T22:12:03.334Z,156074.94
2022-12-12T22:14:32.719Z,156077.56
2022-12-12T22:17:05.349Z,156092.16
2022-12-12T22:19:32.894Z,156092.16
2022-12-12T22:22:01.182Z,156090.78
2022-12-12T22:24:28.715Z,156081.56
2022-12-12T22:26:56.410Z,156053.78
2022-12-12T22:29:23.867Z,156063.03
2022-12-12T22:31:52.687Z,156064.41
2022-12-12T22:34:22.399Z,156057.78
2022-12-12T22:36:50.828Z,156047.19
2022-12-12T22:39:28.266Z,156047.19
2022-12-12T22:41:56.747Z,156036.63
2022-12-12T22:44:25.628Z,156036.63
2022-12-12T22:46:54.766Z,156032.66
2022-12-12T22:49:26.060Z,156028.66
2022-12-12T22:51:56.233Z,156035.28
2022-12-12T22:54:24.446Z,156023.41
2022-12-12T22:56:52.078Z,156026.03
2022-12-12T22:59:19.510Z,156033.97
2022-12-12T23:01:47.137Z,156019.41
2022-12-12T23:04:16.745Z,156020.75
2022-12-12T23:06:44.472Z,156031.34
2022-12-12T23:09:20.095Z,156039.25
2022-12-12T23:11:47.893Z,156041.88
2022-12-12T23:14:17.935Z,156056.41
2022-12-12T23:16:47.306Z,156052.47
2022-12-12T23:19:18.727Z,156069.66
2022-12-12T23:21:47.025Z,156076.25
2022-12-12T23:24:15.000Z,156089.50
2022-12-12T23:26:43.444Z,156088.19
2022-12-12T23:29:15.134Z,156086.88
2022-12-12T23:31:43.259Z,156082.88
2022-12-12T23:34:17.948Z,156073.63
2022-12-12T23:36:45.627Z,156077.56
2022-12-12T23:39:13.539Z,156072.31
2022-12-12T23:41:41.979Z,156055.09
2022-12-12T23:44:15.138Z,156039.25
2022-12-12T23:46:42.818Z,156028.66
2022-12-12T23:49:13.078Z,156010.19
2022-12-12T23:51:46.578Z,155999.59
2022-12-12T23:54:18.025Z,155974.50
2022-12-12T23:56:47.596Z,155973.19
2022-12-12T23:59:17.982Z,155970.50
